HAAB

Addis Ababa Bole International Airport

Addis Ababa, Ethiopia
METAR HAAB 241000Z 07014KT 9999 FEW030 23/04 Q1025
Observed Flight Rules
Sep-24 @ 10:00 UTC (2 hours ago) Visual Flight Rules
Wind Visibility Clouds
70° at 14 knots 10,000+ meters
  • Few at 3,000' AGL
Temperatures Readings
Current 23°C / 73°F
Dewpoint 4°C / 39°F
Humidity 29%
Altimeter 30.27" Hg
Pressure 1025 hPa
Elevation 2355
METAR HAAB 241000Z 07014KT 9999 FEW030 23/04 Q1025
Observed Flight Rules
Sep-24 @ 10:00 UTC
(2 hours ago)
VFR
Wind Visibility
70° at 14 knots 10,000+ meters
Clouds
  • Few at 3,000' AGL
Temperature Dewpoint
23°C / 73°F 4°C / 39°F
Humidity Altimeter Pressure
29% 30.27" Hg 1025 hPa